Pleasant Gap, Pennsylvania
Current Conditions -  °F | °C
As of 5:15 AM on Thursday 29 Jan 2015 (Local Time) from KUNV Reporting Station
Clear Clear  
Wind Chill:   Ceiling: Unl
Heat Index:   Visibility: 10mi
Dew Point:   Wind: 3mph
Humidity: 82%   Direction: 260°W
Pressure: 30.25"   Gusts: NA
Location:  40.9455°N, 77.7398°W
Report Text: KUNV 291015Z AUTO 26003KT 10SM CLR M14/M16 A3025 RMK AO2 T11371161
Loading
Personal Weather Stations






























Interactive Weather Map New forecast layout! Learn more

10-Day Weather Forecast

Advertisements
Track Severe Weather on mobile